Terminal Aerodrome Forecast
Issued by NWS Cleveland, OH

Home | Current Version | Previous Version | Text Only | Print | Product List | Glossary On
Versions: 1 2 3 4 5 6 7 8 9 10 11 12 13 14 15 16 17 18
989
FTUS41 KCLE 260112 AAA
TAFERI
TAF AMD
KERI 260112Z 2601/2624 33010G20KT P6SM SCT025 BKN040
      TEMPO 2601/2604 -SHRA BKN025
     FM260400 27006KT P6SM SCT100
     FM261400 30008KT P6SM SCT250=

USA.gov is the U.S. government's official web portal to all federal, state and local government web resources and services.